Time;durP1;ratioP1;P1;durP2;ratioP2;P2;SDS_P1;SDS_P2;PMS_P1;PMS_P2;Temp;Humidity;BMP_temperature;BMP_pressure;BME280_temperature;BME280_humidity;BME280_pressure;Samples;Min_cycle;Max_cycle;Signal;HPM_P1;HPM_P2
2021/04/03 00:01:49;;;;;;;1.20;1.00;;;8.30;87.00;;;;;;5093706;28;21060;-64
2021/04/03 00:04:18;;;;;;;1.40;1.10;;;8.20;87.20;;;;;;5092229;28;20508;-64
2021/04/03 00:06:45;;;;;;;1.30;1.10;;;8.20;87.00;;;;;;5092184;28;20493;-64
2021/04/03 00:09:13;;;;;;;1.40;1.17;;;8.10;87.30;;;;;;5091013;28;20452;-64
2021/04/03 00:11:40;;;;;;;2.50;1.60;;;8.20;87.30;;;;;;5093738;28;20873;-64
2021/04/03 00:14:07;;;;;;;1.20;1.00;;;8.10;87.50;;;;;;5092206;28;20484;-64
2021/04/03 00:16:34;;;;;;;1.20;1.00;;;8.10;87.60;;;;;;5093728;28;20862;-64
2021/04/03 00:19:02;;;;;;;1.20;1.20;;;8.10;87.00;;;;;;5092106;28;20459;-64
2021/04/03 00:21:28;;;;;;;1.73;1.63;;;8.20;86.90;;;;;;5093969;28;20489;-64
2021/04/03 00:23:58;;;;;;;1.50;1.33;;;8.30;86.60;;;;;;5092416;28;20454;-64
2021/04/03 00:26:24;;;;;;;1.80;1.23;;;8.30;86.50;;;;;;5092518;28;20460;-64
2021/04/03 00:28:53;;;;;;;1.20;1.00;;;8.30;86.70;;;;;;5092209;28;20467;-64
2021/04/03 00:31:20;;;;;;;1.53;1.40;;;8.20;86.30;;;;;;5091787;28;20492;-63
2021/04/03 00:33:48;;;;;;;1.83;1.40;;;8.10;86.60;;;;;;5092160;28;20451;-64
2021/04/03 00:36:15;;;;;;;1.20;1.03;;;8.20;86.60;;;;;;5091955;28;20455;-64
2021/04/03 00:38:41;;;;;;;1.20;1.00;;;8.10;86.70;;;;;;5093399;28;20463;-64
2021/04/03 00:41:08;;;;;;;1.40;1.10;;;8.10;86.90;;;;;;5091463;28;20490;-64
2021/04/03 00:43:34;;;;;;;1.30;1.10;;;8.20;86.40;;;;;;5093182;28;20458;-64
2021/04/03 00:46:01;;;;;;;1.20;1.00;;;8.20;86.00;;;;;;5090037;28;20469;-65
2021/04/03 00:48:27;;;;;;;1.20;1.10;;;8.20;86.70;;;;;;5092918;28;20819;-64
2021/04/03 00:50:55;;;;;;;1.20;1.10;;;8.30;86.40;;;;;;5089549;28;20457;-64
2021/04/03 00:53:25;;;;;;;1.20;1.00;;;8.20;85.00;;;;;;5092914;28;20486;-64
2021/04/03 00:55:52;;;;;;;1.20;1.03;;;8.20;86.10;;;;;;5091183;28;20529;-64
2021/04/03 00:58:19;;;;;;;1.70;1.10;;;8.10;85.80;;;;;;5092800;28;20958;-64
2021/04/03 01:00:46;;;;;;;5.03;1.97;;;8.20;85.40;;;;;;5090790;28;20501;-64
2021/04/03 01:03:13;;;;;;;1.20;1.00;;;8.10;85.30;;;;;;5092679;28;20479;-64
2021/04/03 01:05:40;;;;;;;1.20;0.90;;;7.90;85.60;;;;;;5090810;28;20458;-64
2021/04/03 01:08:07;;;;;;;1.97;1.23;;;7.90;86.10;;;;;;5092479;28;20517;-64
2021/04/03 01:10:39;;;;;;;1.40;1.17;;;7.90;86.60;;;;;;5090966;28;20903;-64
2021/04/03 01:13:28;;;;;;;1.20;1.07;;;7.90;85.60;;;;;;5092782;28;20454;-64
2021/04/03 01:16:03;;;;;;;1.30;1.10;;;8.10;84.90;;;;;;5090895;28;20460;-64
2021/04/03 01:18:41;;;;;;;2.20;1.50;;;8.20;84.30;;;;;;5092376;28;20457;-64
2021/04/03 01:21:15;;;;;;;1.30;1.10;;;8.20;84.10;;;;;;5090232;28;20505;-64
2021/04/03 01:24:21;;;;;;;2.13;1.63;;;8.10;84.80;;;;;;5092398;28;20454;-64
2021/04/03 01:27:11;;;;;;;4.37;1.97;;;8.10;84.80;;;;;;5092582;28;20578;-64
2021/04/03 01:29:52;;;;;;;1.80;1.70;;;8.10;85.10;;;;;;5090367;28;20446;-64
2021/04/03 01:32:25;;;;;;;1.30;1.13;;;8.10;85.10;;;;;;5092160;28;20454;-64
2021/04/03 01:34:55;;;;;;;1.87;1.30;;;8.20;85.00;;;;;;5090212;28;20554;-64
2021/04/03 01:37:24;;;;;;;1.43;1.17;;;8.20;84.90;;;;;;5092215;28;20450;-64
2021/04/03 01:39:53;;;;;;;1.20;1.00;;;8.30;84.40;;;;;;5090239;28;20466;-64
2021/04/03 01:42:22;;;;;;;1.20;0.97;;;8.10;85.20;;;;;;5092015;28;20482;-64
2021/04/03 01:44:52;;;;;;;1.20;0.93;;;8.00;84.80;;;;;;5090035;28;20522;-64
2021/04/03 01:47:21;;;;;;;1.20;0.90;;;8.00;84.80;;;;;;5091729;28;20467;-64
2021/04/03 01:49:50;;;;;;;1.73;1.47;;;7.80;85.70;;;;;;5089721;28;20455;-64
2021/04/03 01:52:23;;;;;;;1.23;1.10;;;7.90;85.50;;;;;;5091847;28;20591;-64
2021/04/03 01:54:51;;;;;;;1.20;1.00;;;7.90;85.80;;;;;;5089924;28;20511;-63
2021/04/03 01:57:19;;;;;;;1.20;1.00;;;7.80;86.30;;;;;;5091701;28;20466;-63
2021/04/03 01:59:49;;;;;;;1.20;1.00;;;7.80;86.50;;;;;;5089860;28;20804;-64
2021/04/03 02:02:16;;;;;;;1.30;1.20;;;7.80;86.00;;;;;;5091396;28;20485;-64
2021/04/03 02:04:43;;;;;;;1.20;1.10;;;7.90;86.20;;;;;;5087936;28;20469;-64
2021/04/03 02:07:17;;;;;;;1.30;1.10;;;7.80;86.10;;;;;;5091622;28;20458;-64
2021/04/03 02:09:46;;;;;;;1.70;1.13;;;7.70;86.70;;;;;;5089712;28;20470;-64
2021/04/03 02:12:17;;;;;;;1.20;1.00;;;7.60;86.50;;;;;;5091355;28;20477;-64
2021/04/03 02:14:48;;;;;;;2.17;1.30;;;7.40;86.40;;;;;;5089094;28;20971;-64
2021/04/03 02:17:17;;;;;;;1.20;0.90;;;7.30;87.70;;;;;;5091232;28;20527;-64
2021/04/03 02:19:44;;;;;;;1.20;1.00;;;7.30;88.40;;;;;;5088332;28;20463;-63
2021/04/03 02:22:14;;;;;;;1.20;1.20;;;7.20;88.40;;;;;;5091168;28;20509;-64
2021/04/03 02:24:43;;;;;;;1.20;1.00;;;7.20;87.80;;;;;;5088535;28;20452;-64
2021/04/03 02:27:10;;;;;;;1.90;1.30;;;7.20;88.80;;;;;;5091255;28;20454;-64
2021/04/03 02:29:37;;;;;;;2.03;1.10;;;7.10;89.90;;;;;;5089492;28;20541;-64
2021/04/03 02:32:07;;;;;;;1.50;1.13;;;6.90;90.30;;;;;;5090988;28;20986;-64
2021/04/03 02:34:35;;;;;;;1.20;1.00;;;6.90;90.70;;;;;;5089288;28;20458;-64
2021/04/03 02:37:03;;;;;;;1.20;1.10;;;7.00;90.70;;;;;;5089789;28;20490;-64
2021/04/03 02:39:30;;;;;;;1.73;1.20;;;7.10;89.90;;;;;;5089401;28;20524;-64
2021/04/03 02:42:02;;;;;;;1.57;1.37;;;7.30;88.70;;;;;;5091046;28;20482;-64
2021/04/03 02:44:34;;;;;;;1.53;1.20;;;7.30;88.90;;;;;;5089350;28;20466;-65
2021/04/03 02:47:05;;;;;;;1.33;1.30;;;7.20;89.30;;;;;;5090792;28;20474;-64
2021/04/03 02:49:35;;;;;;;1.30;1.10;;;7.20;90.50;;;;;;5089204;28;20460;-64
2021/04/03 02:52:06;;;;;;;1.40;1.40;;;7.10;90.70;;;;;;5090851;28;20450;-64
2021/04/03 02:54:34;;;;;;;1.87;1.33;;;7.10;89.80;;;;;;5089375;28;20460;-64
2021/04/03 02:57:08;;;;;;;1.30;1.10;;;7.30;89.20;;;;;;5090705;28;20462;-64
2021/04/03 02:59:40;;;;;;;1.47;1.43;;;7.30;88.80;;;;;;5089140;28;20463;-64
2021/04/03 03:02:07;;;;;;;1.20;1.00;;;7.30;88.10;;;;;;5090563;28;21020;-64
2021/04/03 03:04:38;;;;;;;1.20;0.90;;;7.20;88.60;;;;;;5088800;28;20465;-64
2021/04/03 03:07:08;;;;;;;1.73;1.20;;;7.20;89.30;;;;;;5090710;28;20584;-64
2021/04/03 03:09:37;;;;;;;4.23;1.30;;;7.20;89.70;;;;;;5087655;28;20960;-64
2021/04/03 03:12:05;;;;;;;1.20;1.00;;;7.20;89.20;;;;;;5090657;28;20933;-64
2021/04/03 03:14:32;;;;;;;1.30;1.20;;;7.10;89.50;;;;;;5090165;28;20464;-64
2021/04/03 03:17:00;;;;;;;1.20;1.00;;;7.10;89.30;;;;;;5094724;28;20497;-64
2021/04/03 03:19:27;;;;;;;1.20;1.00;;;7.10;89.00;;;;;;5091820;28;20481;-64
2021/04/03 03:21:56;;;;;;;1.20;1.00;;;7.10;89.60;;;;;;5094631;28;20492;-64
2021/04/03 03:24:23;;;;;;;2.23;1.40;;;7.20;89.30;;;;;;5092837;28;20994;-64
2021/04/03 03:26:51;;;;;;;1.20;1.00;;;7.30;88.50;;;;;;5094596;28;20489;-64
2021/04/03 03:29:18;;;;;;;1.50;1.23;;;7.00;89.30;;;;;;5092367;28;20457;-64
2021/04/03 03:31:44;;;;;;;1.73;1.23;;;6.90;90.30;;;;;;5094552;28;20453;-63
2021/04/03 03:34:11;;;;;;;1.50;1.13;;;6.80;90.50;;;;;;5092748;28;20531;-64
2021/04/03 03:36:40;;;;;;;1.20;1.00;;;6.80;90.60;;;;;;5094570;28;20455;-64
2021/04/03 03:39:07;;;;;;;1.40;1.10;;;6.80;90.30;;;;;;5092789;28;20850;-65
2021/04/03 03:41:35;;;;;;;1.40;1.13;;;6.80;90.60;;;;;;5094502;28;20484;-64
2021/04/03 03:44:03;;;;;;;1.20;1.00;;;6.70;90.60;;;;;;5094048;28;20461;-64
2021/04/03 03:46:29;;;;;;;1.70;1.40;;;6.70;90.60;;;;;;5093335;28;20491;-64
2021/04/03 03:48:57;;;;;;;1.30;1.10;;;6.60;90.80;;;;;;5094216;28;20545;-64
2021/04/03 03:51:24;;;;;;;1.30;1.00;;;6.40;91.90;;;;;;5092210;28;20951;-64
2021/04/03 03:53:50;;;;;;;1.20;0.97;;;6.30;92.60;;;;;;5094033;28;20467;-64
2021/04/03 03:56:18;;;;;;;1.20;0.90;;;6.20;93.10;;;;;;5092022;28;20943;-64
2021/04/03 03:58:45;;;;;;;1.20;1.07;;;6.10;93.20;;;;;;5093953;28;20455;-64
2021/04/03 04:01:12;;;;;;;1.20;0.93;;;6.10;92.50;;;;;;5092021;28;20481;-64
2021/04/03 04:03:38;;;;;;;1.20;1.00;;;5.80;93.80;;;;;;5093980;28;20469;-64
2021/04/03 04:06:05;;;;;;;1.20;1.00;;;5.50;95.00;;;;;;5092033;28;20461;-63
2021/04/03 04:08:32;;;;;;;2.10;1.40;;;5.40;95.10;;;;;;5093742;28;20486;-64
2021/04/03 04:11:00;;;;;;;1.20;1.10;;;5.30;95.90;;;;;;5092041;28;20530;-64
2021/04/03 04:13:27;;;;;;;5.53;2.70;;;5.20;97.00;;;;;;5093722;28;20456;-64
2021/04/03 04:15:54;;;;;;;1.67;1.20;;;5.30;95.70;;;;;;5090554;28;20452;-64
2021/04/03 04:18:21;;;;;;;1.20;1.00;;;5.50;95.70;;;;;;5093710;28;20467;-64
2021/04/03 04:20:48;;;;;;;1.23;1.00;;;5.50;95.60;;;;;;5091837;28;20460;-64
2021/04/03 04:23:15;;;;;;;3.83;1.83;;;5.60;95.80;;;;;;5093475;28;20521;-64
2021/04/03 04:25:42;;;;;;;1.93;1.10;;;5.50;95.90;;;;;;5091090;28;20504;-64
2021/04/03 04:28:08;;;;;;;1.30;1.20;;;5.50;95.50;;;;;;5093357;28;20958;-64
2021/04/03 04:30:37;;;;;;;1.40;1.30;;;5.60;95.30;;;;;;5091797;28;20462;-64
2021/04/03 04:33:04;;;;;;;2.77;1.40;;;5.70;93.50;;;;;;5093312;28;20454;-64
2021/04/03 04:35:30;;;;;;;1.20;1.00;;;5.80;93.60;;;;;;5091479;28;20461;-64
2021/04/03 04:37:58;;;;;;;1.20;1.00;;;5.90;93.80;;;;;;5093424;28;20517;-64
2021/04/03 04:40:24;;;;;;;1.67;1.50;;;6.00;94.10;;;;;;5091382;28;20814;-64
2021/04/03 04:42:52;;;;;;;1.40;1.10;;;6.20;93.60;;;;;;5092102;28;20864;-64
2021/04/03 04:45:22;;;;;;;1.63;1.00;;;6.10;93.90;;;;;;5090483;28;20475;-64
2021/04/03 04:47:49;;;;;;;1.47;1.40;;;6.00;94.80;;;;;;5093141;28;20539;-64
2021/04/03 04:50:17;;;;;;;1.20;0.97;;;5.90;95.50;;;;;;5091334;28;20452;-64
2021/04/03 04:52:43;;;;;;;1.57;1.47;;;6.00;94.40;;;;;;5093013;28;20455;-64
2021/04/03 04:55:11;;;;;;;1.20;1.00;;;6.20;93.60;;;;;;5091120;28;20460;-64
2021/04/03 04:57:37;;;;;;;1.20;0.90;;;6.30;93.60;;;;;;5091556;28;20484;-64
2021/04/03 05:00:05;;;;;;;1.20;0.90;;;6.30;93.10;;;;;;5091463;28;20456;-64
2021/04/03 05:02:32;;;;;;;1.30;1.10;;;6.30;93.20;;;;;;5092224;28;20510;-64
2021/04/03 05:05:00;;;;;;;1.20;0.90;;;6.40;93.40;;;;;;5090894;28;20456;-64
2021/04/03 05:07:27;;;;;;;1.30;1.10;;;6.50;92.90;;;;;;5092474;28;20460;-64
2021/04/03 05:09:53;;;;;;;1.20;1.00;;;6.50;92.80;;;;;;5090991;28;20460;-64
2021/04/03 05:12:20;;;;;;;1.20;0.90;;;6.60;92.20;;;;;;5092447;28;20483;-63
2021/04/03 05:14:46;;;;;;;1.20;1.00;;;6.60;91.80;;;;;;5090615;28;20449;-64
2021/04/03 05:17:14;;;;;;;1.67;1.30;;;6.60;91.00;;;;;;5092418;28;20458;-64
2021/04/03 05:19:40;;;;;;;1.20;1.00;;;6.50;91.10;;;;;;5090622;28;20583;-64
2021/04/03 05:22:08;;;;;;;1.20;1.00;;;6.60;91.30;;;;;;5092328;28;20541;-64
2021/04/03 05:24:34;;;;;;;1.30;1.10;;;6.60;91.80;;;;;;5090665;28;20466;-64
2021/04/03 05:27:01;;;;;;;3.83;1.20;;;6.60;91.70;;;;;;5092466;28;20458;-63
2021/04/03 05:29:27;;;;;;;1.87;1.20;;;6.60;91.40;;;;;;5090241;28;20463;-64
2021/04/03 05:31:54;;;;;;;1.20;1.00;;;6.70;92.10;;;;;;5092239;28;20456;-64
2021/04/03 05:34:20;;;;;;;1.80;1.20;;;6.70;92.10;;;;;;5090583;28;20468;-64
2021/04/03 05:36:47;;;;;;;1.20;1.07;;;6.70;91.70;;;;;;5092133;28;20465;-64
2021/04/03 05:39:14;;;;;;;1.20;1.00;;;6.80;90.70;;;;;;5090734;28;20462;-65
2021/04/03 05:41:41;;;;;;;1.50;1.30;;;6.80;90.50;;;;;;5090005;28;20495;-64
2021/04/03 05:44:10;;;;;;;1.20;0.90;;;6.80;89.60;;;;;;5090537;28;20510;-64
2021/04/03 05:46:39;;;;;;;1.20;1.10;;;6.60;90.90;;;;;;5089460;28;20469;-64
2021/04/03 05:49:06;;;;;;;1.20;1.00;;;6.50;91.20;;;;;;5091780;28;20458;-64
2021/04/03 05:51:32;;;;;;;1.80;1.53;;;6.40;91.40;;;;;;5090199;28;20454;-63
2021/04/03 05:54:02;;;;;;;1.20;1.00;;;6.40;92.00;;;;;;5091736;28;20460;-64
2021/04/03 05:56:30;;;;;;;3.20;1.60;;;6.30;92.40;;;;;;5088959;28;20464;-64
2021/04/03 05:58:57;;;;;;;1.20;1.00;;;6.40;92.80;;;;;;5091893;28;20450;-65
2021/04/03 06:01:24;;;;;;;1.20;1.00;;;6.40;91.30;;;;;;5088616;28;20508;-64
2021/04/03 06:03:51;;;;;;;1.20;1.00;;;6.30;91.40;;;;;;5091728;28;20456;-64
2021/04/03 06:06:18;;;;;;;2.10;1.40;;;6.40;91.80;;;;;;5089817;28;20459;-64
2021/04/03 06:08:45;;;;;;;1.60;1.30;;;6.40;92.20;;;;;;5091951;28;20457;-64
2021/04/03 06:11:15;;;;;;;1.20;1.00;;;6.50;91.80;;;;;;5089916;28;20950;-64
2021/04/03 06:13:43;;;;;;;1.40;1.20;;;6.40;92.20;;;;;;5091440;28;20983;-64
2021/04/03 06:16:25;;;;;;;1.50;1.40;;;6.40;92.00;;;;;;5089580;28;21010;-64
2021/04/03 06:19:16;;;;;;;1.87;1.40;;;6.30;92.30;;;;;;5091453;28;20528;-65
2021/04/03 06:21:44;;;;;;;1.20;1.00;;;6.40;92.50;;;;;;5089385;28;20516;-65
2021/04/03 06:24:22;;;;;;;1.20;1.00;;;6.40;92.60;;;;;;5091243;28;20515;-65
2021/04/03 06:26:58;;;;;;;1.20;1.00;;;6.40;93.00;;;;;;5091624;28;20907;-65
2021/04/03 06:29:28;;;;;;;1.20;1.00;;;6.40;93.00;;;;;;5089649;28;21051;-65
2021/04/03 06:31:57;;;;;;;1.20;1.00;;;6.10;94.30;;;;;;5091143;28;20461;-65
2021/04/03 06:34:31;;;;;;;3.83;1.40;;;5.90;95.80;;;;;;5089894;28;20511;-65
2021/04/03 06:36:58;;;;;;;1.20;1.03;;;5.80;95.60;;;;;;5091441;28;20564;-65
2021/04/03 06:39:26;;;;;;;1.47;1.20;;;5.90;94.60;;;;;;5090488;28;20506;-65
2021/04/03 06:41:53;;;;;;;1.20;0.90;;;5.90;95.70;;;;;;5091334;28;20491;-65
2021/04/03 06:44:19;;;;;;;1.20;1.00;;;6.00;95.90;;;;;;5091853;28;20820;-65
2021/04/03 06:46:48;;;;;;;1.20;1.00;;;5.90;96.30;;;;;;5089957;28;20832;-65
2021/04/03 06:49:15;;;;;;;1.20;1.00;;;6.10;94.70;;;;;;5090987;28;20455;-65
2021/04/03 06:51:43;;;;;;;4.53;1.60;;;6.30;93.80;;;;;;5089104;28;20949;-65
2021/04/03 06:54:11;;;;;;;1.20;1.00;;;6.40;92.70;;;;;;5091179;28;20455;-64
2021/04/03 06:56:38;;;;;;;1.20;1.00;;;6.30;93.40;;;;;;5088985;28;20470;-64
2021/04/03 06:59:06;;;;;;;1.20;1.10;;;6.10;93.30;;;;;;5090950;28;20452;-64
2021/04/03 07:01:48;;;;;;;1.50;1.50;;;6.00;93.80;;;;;;5088878;28;20480;-65
2021/04/03 07:04:28;;;;;;;1.20;1.07;;;6.40;93.30;;;;;;5090951;28;20831;-64
2021/04/03 07:06:58;;;;;;;1.27;1.07;;;6.60;92.70;;;;;;5090665;28;20466;-65
2021/04/03 07:09:26;;;;;;;1.20;1.10;;;6.70;91.20;;;;;;5089729;28;20463;-65
2021/04/03 07:11:55;;;;;;;2.70;1.10;;;6.80;90.30;;;;;;5090541;28;20820;-65
2021/04/03 07:14:23;;;;;;;1.60;1.30;;;7.00;90.60;;;;;;5090923;28;20464;-64
2021/04/03 07:16:53;;;;;;;1.20;1.10;;;7.10;90.50;;;;;;5089378;28;20461;-65
2021/04/03 07:19:21;;;;;;;1.30;1.00;;;7.40;89.50;;;;;;5089568;28;20821;-65
2021/04/03 07:21:51;;;;;;;1.23;1.20;;;7.50;88.10;;;;;;5088729;28;20484;-65
2021/04/03 07:24:19;;;;;;;1.20;0.90;;;7.60;88.50;;;;;;5089859;28;20466;-65
2021/04/03 07:26:51;;;;;;;1.50;1.10;;;7.60;88.70;;;;;;5089001;28;20464;-64
2021/04/03 07:29:46;;;;;;;1.20;1.00;;;7.70;88.70;;;;;;5090775;28;20454;-65
2021/04/03 07:32:32;;;;;;;1.20;1.10;;;7.80;87.90;;;;;;5089180;28;20471;-64
2021/04/03 07:34:59;;;;;;;1.20;1.00;;;7.80;87.70;;;;;;5086998;28;20980;-67
2021/04/03 07:37:32;;;;;;;1.20;1.00;;;7.80;87.70;;;;;;5089982;28;20836;-66
2021/04/03 07:40:00;;;;;;;1.20;1.00;;;7.70;87.80;;;;;;5088290;28;20447;-66
2021/04/03 07:42:35;;;;;;;1.27;1.23;;;7.60;87.90;;;;;;5089786;28;20490;-67
2021/04/03 07:45:03;;;;;;;1.43;1.33;;;7.80;87.90;;;;;;5088451;28;20451;-65
2021/04/03 07:47:29;;;;;;;1.20;1.00;;;7.90;87.40;;;;;;5089867;28;20482;-66
2021/04/03 07:49:57;;;;;;;1.20;1.00;;;7.80;87.30;;;;;;5087780;28;20936;-66
2021/04/03 07:52:52;;;;;;;1.20;1.00;;;7.90;87.70;;;;;;5089237;28;20464;-65
2021/04/03 07:55:33;;;;;;;1.93;1.10;;;8.00;87.30;;;;;;5087961;28;20860;-65
2021/04/03 07:58:24;;;;;;;1.70;1.20;;;8.00;86.70;;;;;;5089731;28;20461;-66
2021/04/03 08:00:52;;;;;;;1.20;1.00;;;8.00;86.30;;;;;;5087705;28;20455;-66
2021/04/03 08:03:23;;;;;;;1.20;1.17;;;8.10;86.30;;;;;;5093293;28;21027;-66
2021/04/03 08:05:57;;;;;;;1.20;1.00;;;8.10;86.30;;;;;;5091800;28;20553;-65
2021/04/03 08:08:23;;;;;;;1.20;1.00;;;8.20;86.70;;;;;;5093757;28;20955;-65
2021/04/03 08:11:04;;;;;;;1.20;1.00;;;8.30;85.40;;;;;;5091784;28;20522;-65
2021/04/03 08:13:36;;;;;;;1.30;1.00;;;8.20;86.30;;;;;;5093818;28;20456;-65
2021/04/03 08:16:05;;;;;;;1.20;1.00;;;8.30;86.60;;;;;;5089978;28;20465;-64
2021/04/03 08:18:32;;;;;;;1.20;1.00;;;8.30;85.80;;;;;;5093696;28;20496;-65
2021/04/03 08:21:00;;;;;;;1.20;0.90;;;8.30;85.10;;;;;;5090344;28;20465;-65
2021/04/03 08:23:31;;;;;;;1.40;1.10;;;8.20;85.50;;;;;;5093518;28;20484;-65
2021/04/03 08:25:58;;;;;;;1.50;1.03;;;8.20;85.00;;;;;;5091474;28;20586;-65
2021/04/03 08:28:25;;;;;;;1.87;1.47;;;8.10;85.40;;;;;;5093526;28;20453;-65
2021/04/03 08:30:51;;;;;;;1.20;1.10;;;8.20;84.70;;;;;;5091254;28;20493;-65
2021/04/03 08:33:19;;;;;;;1.20;0.90;;;8.20;84.80;;;;;;5093390;28;20460;-65
2021/04/03 08:35:48;;;;;;;1.87;1.50;;;8.10;85.80;;;;;;5091175;28;20457;-65
2021/04/03 08:38:22;;;;;;;1.37;1.10;;;8.10;85.20;;;;;;5093290;28;20794;-66
2021/04/03 08:40:51;;;;;;;1.20;1.00;;;8.20;86.00;;;;;;5090681;28;20816;-65
2021/04/03 08:43:23;;;;;;;1.20;1.00;;;8.10;85.70;;;;;;5093197;28;20512;-66
2021/04/03 08:45:51;;;;;;;1.20;0.90;;;8.20;86.20;;;;;;5091073;28;20530;-65
2021/04/03 08:48:17;;;;;;;1.20;1.00;;;8.30;85.40;;;;;;5093064;28;20461;-65
2021/04/03 08:50:46;;;;;;;1.20;1.00;;;8.30;88.70;;;;;;5091105;28;20495;-65
2021/04/03 08:53:13;;;;;;;1.20;0.90;;;8.90;95.40;;;;;;5093127;28;20455;-65
2021/04/03 08:55:41;;;;;;;1.20;1.00;;;9.70;95.50;;;;;;5091214;28;20485;-66
2021/04/03 08:58:08;;;;;;;1.20;1.00;;;10.60;92.00;;;;;;5093054;28;20465;-65
2021/04/03 09:00:35;;;;;;;1.20;0.90;;;11.10;88.90;;;;;;5090403;28;20470;-66
2021/04/03 09:03:02;;;;;;;1.20;1.00;;;11.70;87.60;;;;;;5092805;28;20895;-66
2021/04/03 09:05:29;;;;;;;1.20;1.00;;;12.30;83.50;;;;;;5090324;28;21028;-67
2021/04/03 09:07:56;;;;;;;1.60;1.17;;;12.50;75.90;;;;;;5092972;28;20454;-65
2021/04/03 09:10:24;;;;;;;1.40;1.10;;;11.80;74.50;;;;;;5090469;28;20553;-65
2021/04/03 09:12:53;;;;;;;1.20;1.03;;;11.20;75.70;;;;;;5092318;28;20598;-65
2021/04/03 09:15:31;;;;;;;1.20;1.00;;;11.00;77.20;;;;;;5090335;28;20503;-65
2021/04/03 09:17:59;;;;;;;1.20;1.03;;;10.80;78.50;;;;;;5092496;28;20470;-65
2021/04/03 09:20:28;;;;;;;1.30;1.00;;;10.70;77.20;;;;;;5090321;28;20820;-65
2021/04/03 09:23:04;;;;;;;1.20;1.00;;;10.50;78.70;;;;;;5092272;28;20510;-65
2021/04/03 09:25:32;;;;;;;1.20;1.00;;;10.30;77.50;;;;;;5090020;28;20461;-65
2021/04/03 09:28:01;;;;;;;1.20;1.00;;;10.20;78.90;;;;;;5092340;28;20484;-65
2021/04/03 09:30:36;;;;;;;1.30;1.07;;;9.90;79.50;;;;;;5089837;28;20464;-65
2021/04/03 09:33:17;;;;;;;1.90;1.10;;;9.90;77.90;;;;;;5092068;28;20495;-65
2021/04/03 09:35:44;;;;;;;1.30;1.03;;;9.80;77.40;;;;;;5089832;28;20835;-65
2021/04/03 09:38:11;;;;;;;1.70;1.00;;;9.70;78.90;;;;;;5091943;28;20461;-65
2021/04/03 09:40:39;;;;;;;1.20;1.00;;;9.90;78.10;;;;;;5089689;28;20799;-65
2021/04/03 09:43:06;;;;;;;1.20;0.90;;;9.90;76.80;;;;;;5091851;28;20486;-65
2021/04/03 09:45:33;;;;;;;1.30;1.30;;;9.80;77.60;;;;;;5088393;28;20552;-65
2021/04/03 09:48:00;;;;;;;1.20;1.03;;;9.80;78.10;;;;;;5091900;28;20463;-66
2021/04/03 09:50:27;;;;;;;1.23;1.00;;;9.90;77.50;;;;;;5089601;28;20469;-66
2021/04/03 09:52:55;;;;;;;1.30;1.00;;;9.90;77.20;;;;;;5091587;28;20467;-66
2021/04/03 09:55:21;;;;;;;2.07;1.20;;;9.80;77.50;;;;;;5089583;28;20864;-66
2021/04/03 09:57:48;;;;;;;1.30;1.20;;;9.70;78.50;;;;;;5091448;28;20456;-65
2021/04/03 10:00:16;;;;;;;1.20;1.00;;;9.60;79.00;;;;;;5089694;28;20506;-66
2021/04/03 10:02:42;;;;;;;1.20;1.00;;;9.70;79.00;;;;;;5091804;28;20482;-65
2021/04/03 10:05:12;;;;;;;1.20;1.00;;;9.80;79.90;;;;;;5089913;28;20467;-65
2021/04/03 10:07:39;;;;;;;1.20;0.97;;;10.20;79.60;;;;;;5088770;28;20541;-67
2021/04/03 10:10:17;;;;;;;1.20;1.10;;;10.40;79.40;;;;;;5088372;28;20818;-67
2021/04/03 10:12:44;;;;;;;1.30;1.17;;;10.60;76.50;;;;;;5091645;28;20441;-65
2021/04/03 10:15:11;;;;;;;1.20;1.00;;;10.50;76.60;;;;;;5089374;28;20457;-66
2021/04/03 10:17:38;;;;;;;1.20;1.00;;;10.30;77.30;;;;;;5090772;28;20857;-66
2021/04/03 10:20:06;;;;;;;1.40;1.10;;;10.30;78.60;;;;;;5088050;28;21067;-66
2021/04/03 10:22:33;;;;;;;1.20;0.90;;;10.30;78.40;;;;;;5090624;28;20476;-66
2021/04/03 10:25:00;;;;;;;1.57;1.20;;;10.20;77.80;;;;;;5088745;28;20530;-66
2021/04/03 10:27:30;;;;;;;1.20;1.10;;;10.30;78.50;;;;;;5091154;28;20453;-66
2021/04/03 10:29:56;;;;;;;1.30;1.00;;;10.80;77.50;;;;;;5088936;28;20483;-66
2021/04/03 10:32:23;;;;;;;1.20;0.90;;;11.00;75.60;;;;;;5090576;28;20467;-66
2021/04/03 10:34:51;;;;;;;1.20;0.90;;;10.80;76.50;;;;;;5088798;28;20948;-66
2021/04/03 10:37:19;;;;;;;1.30;1.23;;;11.20;77.30;;;;;;5089805;28;20465;-65
2021/04/03 10:39:45;;;;;;;1.37;1.27;;;11.50;76.40;;;;;;5089620;28;20456;-66
2021/04/03 10:42:13;;;;;;;1.40;1.00;;;11.80;74.20;;;;;;5089717;28;20899;-65
2021/04/03 10:44:40;;;;;;;1.20;1.00;;;11.70;74.80;;;;;;5090680;28;20460;-66
2021/04/03 10:47:06;;;;;;;1.50;1.40;;;11.50;73.40;;;;;;5088277;28;20468;-66
2021/04/03 10:49:33;;;;;;;1.40;1.20;;;11.40;74.10;;;;;;5090708;28;20467;-66
2021/04/03 10:52:01;;;;;;;1.20;0.90;;;11.60;74.00;;;;;;5090096;28;20554;-65
2021/04/03 10:54:28;;;;;;;1.20;1.00;;;12.00;72.10;;;;;;5090549;28;20803;-66
2021/04/03 10:56:55;;;;;;;1.20;1.00;;;12.40;71.80;;;;;;5088544;28;20940;-66
2021/04/03 10:59:22;;;;;;;1.20;1.13;;;12.40;68.90;;;;;;5090552;28;20463;-65
2021/04/03 11:01:49;;;;;;;1.20;1.00;;;12.20;69.30;;;;;;5088542;28;20462;-66
2021/04/03 11:04:16;;;;;;;1.20;0.90;;;12.50;70.00;;;;;;5090518;28;20457;-66
2021/04/03 11:06:42;;;;;;;1.20;1.00;;;12.90;68.00;;;;;;5088862;28;20456;-66
2021/04/03 11:09:11;;;;;;;1.30;1.10;;;13.30;70.20;;;;;;5090766;28;20462;-65
2021/04/03 11:11:37;;;;;;;2.60;1.50;;;13.70;67.80;;;;;;5088671;28;20463;-69
2021/04/03 11:14:04;;;;;;;1.20;1.00;;;13.60;69.00;;;;;;5089999;28;20459;-69
2021/04/03 11:16:39;;;;;;;1.30;1.10;;;13.40;69.00;;;;;;5088884;28;20462;-71
2021/04/03 11:19:06;;;;;;;1.50;1.10;;;13.00;69.10;;;;;;5090736;28;20657;-66
2021/04/03 11:21:33;;;;;;;3.63;1.83;;;12.80;67.80;;;;;;5088838;28;20456;-66
2021/04/03 11:24:00;;;;;;;1.20;1.00;;;12.70;67.00;;;;;;5088505;28;20459;-68
2021/04/03 11:26:28;;;;;;;1.20;1.00;;;12.80;65.90;;;;;;5071261;28;20462;-67
2021/04/03 11:28:54;;;;;;;1.20;1.00;;;13.00;69.70;;;;;;5090170;28;20467;-68
2021/04/03 11:31:22;;;;;;;1.70;1.10;;;13.20;65.60;;;;;;5088589;28;20508;-68
2021/04/03 11:33:49;;;;;;;7.40;1.47;;;13.00;63.60;;;;;;5090306;28;20878;-69
2021/04/03 11:36:15;;;;;;;1.20;0.93;;;12.70;63.40;;;;;;5088909;28;20459;-68
2021/04/03 11:38:43;;;;;;;1.30;1.10;;;12.60;65.00;;;;;;5094285;28;20487;-68
2021/04/03 11:41:10;;;;;;;1.20;1.00;;;13.20;64.50;;;;;;5090705;28;20513;-68
2021/04/03 11:43:38;;;;;;;1.20;1.00;;;14.00;64.10;;;;;;5094071;28;20482;-67
2021/04/03 11:46:05;;;;;;;1.20;1.00;;;14.50;61.20;;;;;;5092121;28;20449;-68
2021/04/03 11:48:32;;;;;;;1.20;0.90;;;14.40;60.10;;;;;;5094183;28;21079;-68
2021/04/03 11:50:58;;;;;;;1.30;1.30;;;14.20;60.90;;;;;;5091886;28;20982;-67
2021/04/03 11:53:25;;;;;;;1.30;1.10;;;13.80;62.40;;;;;;5093777;28;20460;-68
2021/04/03 11:55:52;;;;;;;1.20;1.00;;;13.60;64.40;;;;;;5092295;28;20457;-68
2021/04/03 11:58:19;;;;;;;1.20;0.90;;;13.50;63.30;;;;;;5094048;28;20548;-68
2021/04/03 12:00:47;;;;;;;1.20;1.07;;;13.30;63.90;;;;;;5092077;28;20462;-66
2021/04/03 12:03:13;;;;;;;1.40;1.20;;;13.00;64.20;;;;;;5093753;28;21021;-66
2021/04/03 12:05:40;;;;;;;1.73;1.20;;;12.90;64.20;;;;;;5091866;28;20549;-66
2021/04/03 12:08:07;;;;;;;1.30;1.10;;;12.70;64.90;;;;;;5093649;28;20832;-66
2021/04/03 12:10:36;;;;;;;1.30;1.00;;;12.40;64.50;;;;;;5091385;28;20483;-69
2021/04/03 12:13:03;;;;;;;1.20;1.07;;;12.40;65.10;;;;;;5093288;28;20489;-68
2021/04/03 12:15:32;;;;;;;1.30;1.00;;;12.40;65.60;;;;;;5091385;28;20487;-68
2021/04/03 12:17:59;;;;;;;1.20;1.10;;;12.40;64.40;;;;;;5093303;28;20462;-68
2021/04/03 12:20:26;;;;;;;1.20;1.00;;;12.30;65.20;;;;;;5090778;28;20498;-68
2021/04/03 12:22:53;;;;;;;1.20;0.90;;;12.30;65.50;;;;;;5091640;28;20479;-69
2021/04/03 12:25:19;;;;;;;1.20;0.90;;;12.30;65.40;;;;;;5090793;28;20455;-68
2021/04/03 12:27:47;;;;;;;1.30;1.10;;;12.40;66.30;;;;;;5093180;28;20466;-68
2021/04/03 12:30:15;;;;;;;1.20;1.00;;;12.30;66.10;;;;;;5090784;28;20853;-68
2021/04/03 12:32:42;;;;;;;1.20;1.00;;;12.20;65.50;;;;;;5092677;28;20468;-68
2021/04/03 12:35:11;;;;;;;1.20;1.00;;;12.20;66.80;;;;;;5090430;28;20457;-69
2021/04/03 12:37:37;;;;;;;1.20;1.00;;;12.30;66.10;;;;;;5091655;28;20454;-68
2021/04/03 12:40:05;;;;;;;1.20;0.90;;;12.50;67.10;;;;;;5090615;28;20508;-68
2021/04/03 12:42:31;;;;;;;1.20;1.00;;;12.60;66.80;;;;;;5092682;28;20528;-68
2021/04/03 12:44:58;;;;;;;1.20;0.90;;;12.70;65.30;;;;;;5091842;28;20554;-69
2021/04/03 12:47:25;;;;;;;1.20;1.00;;;12.60;65.30;;;;;;5092361;28;20498;-69
2021/04/03 12:49:52;;;;;;;1.50;1.10;;;12.50;65.30;;;;;;5092520;28;20460;-68
2021/04/03 12:52:20;;;;;;;1.60;1.37;;;12.40;65.50;;;;;;5090161;28;20447;-69
2021/04/03 12:54:47;;;;;;;1.20;1.00;;;12.50;66.00;;;;;;5093024;28;20461;-68
2021/04/03 12:57:14;;;;;;;1.20;1.00;;;12.50;66.10;;;;;;5091575;28;20446;-68
2021/04/03 12:59:41;;;;;;;1.20;1.10;;;12.30;66.80;;;;;;5092972;28;20519;-70
2021/04/03 13:02:08;;;;;;;1.20;0.90;;;12.70;66.10;;;;;;5090819;28;20477;-66
2021/04/03 13:04:34;;;;;;;1.20;1.00;;;12.80;65.00;;;;;;5092974;28;20493;-68